Time;durP1;ratioP1;P1;durP2;ratioP2;P2;SDS_P1;SDS_P2;PMS_P1;PMS_P2;Temp;Humidity;BMP_temperature;BMP_pressure;BME280_temperature;BME280_humidity;BME280_pressure;Samples;Min_cycle;Max_cycle;Signal;HPM_P1;HPM_P2
2022/09/25 00:00:59;;;;;;;4.72;2.72;;;;;;;;;;5025925;28;20050;-89
2022/09/25 00:03:29;;;;;;;4.00;2.75;;;;;;;;;;5030498;28;20107;-90
2022/09/25 00:06:06;;;;;;;3.53;2.55;;;;;;;;;;5029025;28;20064;-89
2022/09/25 00:08:35;;;;;;;3.78;2.17;;;;;;;;;;5029138;28;20064;-89
2022/09/25 00:11:06;;;;;;;3.80;1.90;;;;;;;;;;5020919;28;20475;-90
2022/09/25 00:13:35;;;;;;;3.42;2.08;;;;;;;;;;5024747;28;20050;-88
2022/09/25 00:16:04;;;;;;;3.97;1.80;;;;;;;;;;5018976;28;20053;-90
2022/09/25 00:21:20;;;;;;;5.68;2.92;;;;;;;;;;5017532;28;20038;-91
2022/09/25 00:23:49;;;;;;;3.70;1.92;;;;;;;;;;5022033;28;20057;-93
2022/09/25 00:26:18;;;;;;;3.95;2.22;;;;;;;;;;5016574;28;20095;-88
2022/09/25 00:28:46;;;;;;;2.47;2.05;;;;;;;;;;5024184;28;20088;-92
2022/09/25 00:31:20;;;;;;;2.75;1.75;;;;;;;;;;5016606;28;20045;-90
2022/09/25 00:33:48;;;;;;;3.97;2.17;;;;;;;;;;5017679;28;20548;-91
2022/09/25 00:36:16;;;;;;;2.83;1.40;;;;;;;;;;5026177;28;20052;-89
2022/09/25 00:38:47;;;;;;;3.70;2.13;;;;;;;;;;5016007;28;20128;-88
2022/09/25 00:41:16;;;;;;;3.05;1.83;;;;;;;;;;5018476;28;20120;-89
2022/09/25 00:43:47;;;;;;;2.78;1.60;;;;;;;;;;5025791;28;20458;-90
2022/09/25 00:46:17;;;;;;;4.38;2.03;;;;;;;;;;5026824;28;20058;-91
2022/09/25 00:48:49;;;;;;;2.42;1.60;;;;;;;;;;5028046;28;20041;-90
2022/09/25 00:51:19;;;;;;;4.28;2.47;;;;;;;;;;5027083;28;20038;-90
2022/09/25 00:53:49;;;;;;;8.10;2.63;;;;;;;;;;5028160;28;20038;-92
2022/09/25 00:56:18;;;;;;;2.78;1.38;;;;;;;;;;5026542;28;20056;-91
2022/09/25 00:58:47;;;;;;;4.28;1.92;;;;;;;;;;5027365;28;20041;-92
2022/09/25 01:01:16;;;;;;;3.30;2.17;;;;;;;;;;5027537;28;20057;-91
2022/09/25 01:03:45;;;;;;;4.43;1.98;;;;;;;;;;5023857;28;20497;-91
2022/09/25 01:06:14;;;;;;;4.55;2.40;;;;;;;;;;5022377;28;20064;-91
2022/09/25 01:08:43;;;;;;;3.28;2.20;;;;;;;;;;5024680;28;20049;-90
2022/09/25 01:11:13;;;;;;;14.75;1.95;;;;;;;;;;5026648;28;20133;-91
2022/09/25 01:13:42;;;;;;;2.40;1.52;;;;;;;;;;5025854;28;20057;-92
2022/09/25 01:16:14;;;;;;;4.15;2.13;;;;;;;;;;5026027;28;20067;-90
2022/09/25 01:18:46;;;;;;;4.03;2.38;;;;;;;;;;5022231;28;20108;-89
2022/09/25 01:21:18;;;;;;;4.22;2.80;;;;;;;;;;5028852;28;20068;-91
2022/09/25 01:23:56;;;;;;;3.60;1.83;;;;;;;;;;5019003;28;20050;-92
2022/09/25 01:26:37;;;;;;;3.45;1.70;;;;;;;;;;5016492;28;20050;-91
2022/09/25 01:29:11;;;;;;;4.25;2.55;;;;;;;;;;5021186;28;20042;-92
2022/09/25 01:31:43;;;;;;;4.57;2.10;;;;;;;;;;5016850;28;20049;-89
2022/09/25 01:34:15;;;;;;;5.63;2.90;;;;;;;;;;5015121;28;20042;-89
2022/09/25 01:36:48;;;;;;;3.03;1.92;;;;;;;;;;5019283;28;20054;-87
2022/09/25 01:39:20;;;;;;;3.97;2.50;;;;;;;;;;5015368;28;20042;-92
2022/09/25 01:41:52;;;;;;;3.40;2.55;;;;;;;;;;5024650;28;20441;-92
2022/09/25 01:44:27;;;;;;;5.72;2.17;;;;;;;;;;5020776;28;20064;-92
2022/09/25 01:46:57;;;;;;;6.70;2.75;;;;;;;;;;5014539;28;20520;-88
2022/09/25 01:49:27;;;;;;;3.15;1.88;;;;;;;;;;5026539;28;20049;-91
2022/09/25 01:51:57;;;;;;;4.93;2.13;;;;;;;;;;5025310;28;20052;-90
2022/09/25 01:54:28;;;;;;;3.53;2.28;;;;;;;;;;5013805;28;20045;-90
2022/09/25 01:56:59;;;;;;;3.88;2.50;;;;;;;;;;5022627;28;20041;-85
2022/09/25 01:59:31;;;;;;;3.67;2.30;;;;;;;;;;5025945;28;20057;-91
2022/09/25 02:02:00;;;;;;;4.60;2.20;;;;;;;;;;5023846;28;20487;-85
2022/09/25 02:04:30;;;;;;;3.38;2.03;;;;;;;;;;5026169;28;20064;-91
2022/09/25 02:07:00;;;;;;;2.42;1.73;;;;;;;;;;5019344;28;20060;-91
2022/09/25 02:09:33;;;;;;;3.05;1.63;;;;;;;;;;5032052;28;20133;-89
2022/09/25 02:12:06;;;;;;;2.05;1.50;;;;;;;;;;5014782;28;20053;-91
2022/09/25 02:14:38;;;;;;;4.32;1.90;;;;;;;;;;5028423;28;20053;-87
2022/09/25 02:17:11;;;;;;;2.72;1.63;;;;;;;;;;5024845;28;20100;-88
2022/09/25 02:22:29;;;;;;;3.58;1.92;;;;;;;;;;5025540;28;20034;-90
2022/09/25 02:24:58;;;;;;;3.17;1.83;;;;;;;;;;5021215;28;20448;-90
2022/09/25 02:27:28;;;;;;;3.83;1.98;;;;;;;;;;5028757;28;20052;-90
2022/09/25 02:29:58;;;;;;;2.00;1.83;;;;;;;;;;5031766;28;20053;-91
2022/09/25 02:32:29;;;;;;;2.47;2.10;;;;;;;;;;5024860;28;20041;-90
2022/09/25 02:34:58;;;;;;;2.65;1.58;;;;;;;;;;5022272;28;20042;-88
2022/09/25 02:37:27;;;;;;;1.27;1.13;;;;;;;;;;5022979;28;20510;-91
2022/09/25 02:39:57;;;;;;;1.55;1.42;;;;;;;;;;5022317;28;20056;-91
2022/09/25 02:42:29;;;;;;;2.25;1.50;;;;;;;;;;5024022;28;20053;-88
2022/09/25 02:45:08;;;;;;;2.00;1.70;;;;;;;;;;5025509;28;20058;-90
2022/09/25 02:47:43;;;;;;;2.42;1.55;;;;;;;;;;5019751;28;20060;-89
2022/09/25 02:50:16;;;;;;;2.42;1.83;;;;;;;;;;5029964;28;20050;-89
2022/09/25 02:52:47;;;;;;;2.97;1.67;;;;;;;;;;5025876;28;20045;-89
2022/09/25 02:55:19;;;;;;;2.00;1.80;;;;;;;;;;5027874;28;20507;-89
2022/09/25 02:57:52;;;;;;;2.65;1.73;;;;;;;;;;5020314;28;20049;-89
2022/09/25 03:00:22;;;;;;;2.75;1.70;;;;;;;;;;5018922;28;20418;-90
2022/09/25 03:02:52;;;;;;;1.65;1.52;;;;;;;;;;5023006;28;20049;-89
2022/09/25 03:05:21;;;;;;;2.97;2.17;;;;;;;;;;5028950;28;20477;-89
2022/09/25 03:10:37;;;;;;;3.13;2.00;;;;;;;;;;5020477;28;20056;-88
2022/09/25 03:13:15;;;;;;;1.77;1.48;;;;;;;;;;5026672;28;20422;-88
2022/09/25 03:15:47;;;;;;;5.97;2.03;;;;;;;;;;5025205;28;20064;-87
2022/09/25 03:18:15;;;;;;;3.15;2.08;;;;;;;;;;5027567;28;20107;-89
2022/09/25 03:20:44;;;;;;;4.07;2.30;;;;;;;;;;5028890;28;20049;-89
2022/09/25 03:23:12;;;;;;;1.85;1.58;;;;;;;;;;5024803;28;20478;-90
2022/09/25 03:25:41;;;;;;;2.00;1.77;;;;;;;;;;5020536;28;20073;-91
2022/09/25 03:28:16;;;;;;;1.85;1.48;;;;;;;;;;5025583;28;20053;-89
2022/09/25 03:30:55;;;;;;;2.45;1.92;;;;;;;;;;5027279;28;20052;-89
2022/09/25 03:33:24;;;;;;;3.47;1.90;;;;;;;;;;5030193;28;20099;-87
2022/09/25 03:36:00;;;;;;;1.98;1.63;;;;;;;;;;5027010;28;20052;-89
2022/09/25 03:38:28;;;;;;;1.77;1.40;;;;;;;;;;5029351;28;20045;-88
2022/09/25 03:40:57;;;;;;;1.98;1.50;;;;;;;;;;5023161;28;20056;-87
2022/09/25 03:43:25;;;;;;;2.55;1.92;;;;;;;;;;5026689;28;20115;-88
2022/09/25 03:45:55;;;;;;;2.22;1.80;;;;;;;;;;5029584;28;20062;-87
2022/09/25 03:48:24;;;;;;;2.75;1.88;;;;;;;;;;5028091;28;20599;-90
2022/09/25 03:50:52;;;;;;;2.67;1.58;;;;;;;;;;5018758;28;20049;-84
2022/09/25 03:53:20;;;;;;;2.50;1.60;;;;;;;;;;5028342;28;20056;-88
2022/09/25 03:55:49;;;;;;;1.60;1.48;;;;;;;;;;5020534;28;20056;-87
2022/09/25 03:58:17;;;;;;;1.83;1.67;;;;;;;;;;5025292;28;20049;-86
2022/09/25 04:00:46;;;;;;;1.98;1.35;;;;;;;;;;5023365;28;20056;-90
2022/09/25 04:03:16;;;;;;;1.60;1.50;;;;;;;;;;5023271;28;20053;-89
2022/09/25 04:05:45;;;;;;;2.05;1.73;;;;;;;;;;5023097;28;20053;-88
2022/09/25 04:08:13;;;;;;;1.42;1.10;;;;;;;;;;5024014;28;20050;-88
2022/09/25 04:10:41;;;;;;;2.78;1.50;;;;;;;;;;5028689;28;20049;-90
2022/09/25 04:13:11;;;;;;;2.85;1.63;;;;;;;;;;5023233;28;20058;-90
2022/09/25 04:15:40;;;;;;;1.65;1.40;;;;;;;;;;5026929;28;20069;-89
2022/09/25 04:18:08;;;;;;;2.13;1.63;;;;;;;;;;5021127;28;20406;-87
2022/09/25 04:20:38;;;;;;;1.77;1.50;;;;;;;;;;5027797;28;20053;-86
2022/09/25 04:23:06;;;;;;;1.83;1.33;;;;;;;;;;5019947;28;20561;-88
2022/09/25 04:25:35;;;;;;;2.08;1.58;;;;;;;;;;5019141;28;20501;-88
2022/09/25 04:28:04;;;;;;;3.17;1.67;;;;;;;;;;5012366;28;20050;-88
2022/09/25 04:30:32;;;;;;;1.85;1.70;;;;;;;;;;5016232;28;20068;-87
2022/09/25 04:35:47;;;;;;;3.10;1.63;;;;;;;;;;5015601;28;20045;-87
2022/09/25 04:38:16;;;;;;;2.03;1.65;;;;;;;;;;5016290;28;20049;-87
2022/09/25 04:40:45;;;;;;;2.28;1.65;;;;;;;;;;5014443;28;20053;-87
2022/09/25 04:43:14;;;;;;;2.35;1.58;;;;;;;;;;5020970;28;20065;-87
2022/09/25 04:45:42;;;;;;;1.98;1.45;;;;;;;;;;5025720;28;20549;-86
2022/09/25 04:48:10;;;;;;;1.65;1.25;;;;;;;;;;5028901;28;20072;-88
2022/09/25 04:50:39;;;;;;;2.10;1.30;;;;;;;;;;5018812;28;20049;-88
2022/09/25 04:53:09;;;;;;;1.98;1.50;;;;;;;;;;5026776;28;20049;-87
2022/09/25 04:55:38;;;;;;;1.58;1.48;;;;;;;;;;5021918;28;20053;-87
2022/09/25 04:58:06;;;;;;;2.25;1.63;;;;;;;;;;5028151;28;20053;-88
2022/09/25 05:00:35;;;;;;;2.75;1.77;;;;;;;;;;5020191;28;20091;-88
2022/09/25 05:03:03;;;;;;;1.40;1.27;;;;;;;;;;5027182;28;20049;-86
2022/09/25 05:05:32;;;;;;;1.77;1.33;;;;;;;;;;5024986;28;20505;-86
2022/09/25 05:08:01;;;;;;;2.25;1.90;;;;;;;;;;5025161;28;20048;-89
2022/09/25 05:10:31;;;;;;;1.95;1.73;;;;;;;;;;5027008;28;20049;-88
2022/09/25 05:13:01;;;;;;;1.35;1.25;;;;;;;;;;5021036;28;20048;-88
2022/09/25 05:15:30;;;;;;;2.38;1.50;;;;;;;;;;5023374;28;20049;-88
2022/09/25 05:18:01;;;;;;;2.28;1.50;;;;;;;;;;5022822;28;20052;-88
2022/09/25 05:20:29;;;;;;;2.92;1.95;;;;;;;;;;5026295;28;20041;-87
2022/09/25 05:22:58;;;;;;;1.88;1.58;;;;;;;;;;5018945;28;20076;-89
2022/09/25 05:25:27;;;;;;;1.60;1.40;;;;;;;;;;5026947;28;20041;-89
2022/09/25 05:27:58;;;;;;;3.25;1.50;;;;;;;;;;5023255;28;20053;-89
2022/09/25 05:30:26;;;;;;;1.33;1.20;;;;;;;;;;5024476;28;20053;-89
2022/09/25 05:32:57;;;;;;;2.05;1.65;;;;;;;;;;5027377;28;20525;-88
2022/09/25 05:35:26;;;;;;;2.00;1.33;;;;;;;;;;5023764;28;20502;-88
2022/09/25 05:37:55;;;;;;;4.40;2.00;;;;;;;;;;5030183;28;20507;-87
2022/09/25 05:40:23;;;;;;;1.02;0.93;;;;;;;;;;5028442;28;20052;-86
2022/09/25 05:42:54;;;;;;;1.83;1.38;;;;;;;;;;5024090;28;20057;-84
2022/09/25 05:45:23;;;;;;;1.58;1.40;;;;;;;;;;5027776;28;20041;-87
2022/09/25 05:48:01;;;;;;;1.92;1.58;;;;;;;;;;5028325;28;20053;-86
2022/09/25 05:50:31;;;;;;;1.10;1.00;;;;;;;;;;5031212;28;20051;-85
2022/09/25 05:53:00;;;;;;;1.65;1.20;;;;;;;;;;5021788;28;20520;-85
2022/09/25 05:55:28;;;;;;;3.08;1.52;;;;;;;;;;5027165;28;20049;-87
2022/09/25 05:58:01;;;;;;;5.88;1.33;;;;;;;;;;5023323;28;20420;-86
2022/09/25 06:00:31;;;;;;;1.70;1.60;;;;;;;;;;5028867;28;20057;-86
2022/09/25 06:03:00;;;;;;;2.10;1.42;;;;;;;;;;5030053;28;20080;-87
2022/09/25 06:05:29;;;;;;;2.03;1.42;;;;;;;;;;5015104;28;20104;-85
2022/09/25 06:07:57;;;;;;;1.35;0.98;;;;;;;;;;5026130;28;20038;-85
2022/09/25 06:10:26;;;;;;;0.95;0.88;;;;;;;;;;5028324;28;20045;-87
2022/09/25 06:12:57;;;;;;;1.60;1.40;;;;;;;;;;5027363;28;20048;-84
2022/09/25 06:15:26;;;;;;;1.65;0.85;;;;;;;;;;5021531;28;20054;-86
2022/09/25 06:17:56;;;;;;;1.42;0.93;;;;;;;;;;5020669;28;20515;-86
2022/09/25 06:20:25;;;;;;;1.33;1.02;;;;;;;;;;5017891;28;20045;-85
2022/09/25 06:22:54;;;;;;;1.20;0.90;;;;;;;;;;5022203;28;20049;-87
2022/09/25 06:25:24;;;;;;;1.42;1.05;;;;;;;;;;5020661;28;20056;-84
2022/09/25 06:27:53;;;;;;;1.20;1.10;;;;;;;;;;5021591;28;20042;-84
2022/09/25 06:30:22;;;;;;;1.63;1.23;;;;;;;;;;5020724;28;20476;-86
2022/09/25 06:32:50;;;;;;;1.67;1.20;;;;;;;;;;5021256;28;20065;-88
2022/09/25 06:35:20;;;;;;;2.15;1.38;;;;;;;;;;5016669;28;20271;-89
2022/09/25 06:37:48;;;;;;;2.17;1.20;;;;;;;;;;5022334;28;20049;-90
2022/09/25 06:40:17;;;;;;;1.38;0.98;;;;;;;;;;5024324;28;20440;-88
2022/09/25 06:42:45;;;;;;;1.05;0.90;;;;;;;;;;5016833;28;20097;-84
2022/09/25 06:45:14;;;;;;;1.45;1.08;;;;;;;;;;5020584;28;20049;-85
2022/09/25 06:47:42;;;;;;;3.00;1.33;;;;;;;;;;5023258;28;20053;-87
2022/09/25 06:50:11;;;;;;;1.15;0.82;;;;;;;;;;5020027;28;20042;-88
2022/09/25 06:52:43;;;;;;;2.20;0.82;;;;;;;;;;5017513;28;20391;-85
2022/09/25 06:55:12;;;;;;;1.38;0.85;;;;;;;;;;5021110;28;20494;-86
2022/09/25 06:57:40;;;;;;;1.55;1.15;;;;;;;;;;5017488;28;20054;-82
2022/09/25 07:00:09;;;;;;;1.45;1.00;;;;;;;;;;5018126;28;20053;-84
2022/09/25 07:05:23;;;;;;;1.30;0.93;;;;;;;;;;5021674;28;20042;-84
2022/09/25 07:07:54;;;;;;;0.57;0.57;;;;;;;;;;5022657;28;20068;-83
2022/09/25 07:10:23;;;;;;;2.50;1.60;;;;;;;;;;5017427;28;20052;-87
2022/09/25 07:12:51;;;;;;;0.82;0.75;;;;;;;;;;5019415;28;20049;-87
2022/09/25 07:15:19;;;;;;;3.38;1.05;;;;;;;;;;5022569;28;20405;-85
2022/09/25 07:17:48;;;;;;;0.40;0.40;;;;;;;;;;5019268;28;20444;-85
2022/09/25 07:20:16;;;;;;;1.98;1.05;;;;;;;;;;5017416;28;20080;-82
2022/09/25 07:22:44;;;;;;;1.38;1.08;;;;;;;;;;5024760;28;20056;-83
2022/09/25 07:25:14;;;;;;;0.70;0.70;;;;;;;;;;5020456;28;20050;-85
2022/09/25 07:27:43;;;;;;;1.63;1.25;;;;;;;;;;5017468;28;20061;-85
2022/09/25 07:30:11;;;;;;;0.98;0.52;;;;;;;;;;5025235;28;20053;-86
2022/09/25 07:32:40;;;;;;;1.52;1.25;;;;;;;;;;5024192;28;20588;-83
2022/09/25 07:35:08;;;;;;;1.08;0.98;;;;;;;;;;5024190;28;20057;-81
2022/09/25 07:37:37;;;;;;;2.67;1.33;;;;;;;;;;5021419;28;20077;-88
2022/09/25 07:40:06;;;;;;;1.83;1.50;;;;;;;;;;5018495;28;20341;-79
2022/09/25 07:42:35;;;;;;;1.23;0.85;;;;;;;;;;5019620;28;20057;-83
2022/09/25 07:45:04;;;;;;;1.38;1.27;;;;;;;;;;5015475;28;20057;-84
2022/09/25 07:47:32;;;;;;;1.38;1.20;;;;;;;;;;5019213;28;20056;-80
2022/09/25 07:50:01;;;;;;;3.13;1.60;;;;;;;;;;5018495;28;20049;-81
2022/09/25 07:52:29;;;;;;;4.75;1.17;;;;;;;;;;5024742;28;20540;-83
2022/09/25 07:54:58;;;;;;;1.52;1.25;;;;;;;;;;5020796;28;20054;-80
2022/09/25 07:57:27;;;;;;;3.63;1.67;;;;;;;;;;5019421;28;20057;-81
2022/09/25 07:59:56;;;;;;;3.22;1.95;;;;;;;;;;5017810;28;20049;-78
2022/09/25 08:02:25;;;;;;;1.48;1.23;;;;;;;;;;5013463;28;20046;-81
2022/09/25 08:04:53;;;;;;;2.00;1.23;;;;;;;;;;5022709;28;20501;-79
2022/09/25 08:07:21;;;;;;;2.58;1.75;;;;;;;;;;5019698;28;20081;-78
2022/09/25 08:09:50;;;;;;;3.22;1.80;;;;;;;;;;5022733;28;20049;-78
2022/09/25 08:12:18;;;;;;;3.05;1.75;;;;;;;;;;5025245;28;20049;-78
2022/09/25 08:14:47;;;;;;;3.47;1.45;;;;;;;;;;5016154;28;20056;-78
2022/09/25 08:17:17;;;;;;;3.00;1.70;;;;;;;;;;5021225;28;20055;-78
2022/09/25 08:19:45;;;;;;;3.47;1.73;;;;;;;;;;5019122;28;20064;-78
2022/09/25 08:22:14;;;;;;;4.43;2.20;;;;;;;;;;5014008;28;20062;-77
2022/09/25 08:24:42;;;;;;;6.03;2.83;;;;;;;;;;5018200;28;20045;-78
2022/09/25 08:27:11;;;;;;;2.60;1.67;;;;;;;;;;5027030;28;20504;-78
2022/09/25 08:29:39;;;;;;;3.50;1.83;;;;;;;;;;5027557;28;20516;-78
2022/09/25 08:32:08;;;;;;;2.88;1.65;;;;;;;;;;5022493;28;20045;-78
2022/09/25 08:34:38;;;;;;;2.47;1.33;;;;;;;;;;5016272;28;20056;-78
2022/09/25 08:37:09;;;;;;;5.75;2.17;;;;;;;;;;5026432;28;20045;-78
2022/09/25 08:39:37;;;;;;;5.63;2.45;;;;;;;;;;5023345;28;20054;-78
2022/09/25 08:42:06;;;;;;;4.53;1.98;;;;;;;;;;5021289;28;20045;-78
2022/09/25 08:44:37;;;;;;;7.97;3.10;;;;;;;;;;4980707;28;1145622;-77
2022/09/25 08:50:12;;;;;;;4.25;2.35;;;;;;;;;;4987382;28;20530;-78
2022/09/25 08:52:42;;;;;;;7.40;2.17;;;;;;;;;;5015519;28;20136;-78
2022/09/25 08:55:14;;;;;;;4.50;2.08;;;;;;;;;;5025001;28;20053;-76
2022/09/25 08:57:44;;;;;;;4.05;2.20;;;;;;;;;;5018634;28;20063;-78
2022/09/25 09:00:19;;;;;;;4.53;1.75;;;;;;;;;;5022577;28;20042;-78
2022/09/25 09:02:52;;;;;;;2.13;1.52;;;;;;;;;;5020823;28;20476;-78
2022/09/25 09:05:25;;;;;;;3.42;2.05;;;;;;;;;;5021038;28;20053;-78
2022/09/25 09:07:55;;;;;;;5.57;2.35;;;;;;;;;;5020847;28;20497;-77
2022/09/25 09:10:29;;;;;;;5.43;1.88;;;;;;;;;;5027745;28;20070;-77
2022/09/25 09:13:00;;;;;;;3.42;1.83;;;;;;;;;;5016795;28;20469;-77
2022/09/25 09:15:30;;;;;;;6.78;2.80;;;;;;;;;;5016628;28;20041;-77
2022/09/25 09:18:01;;;;;;;3.50;1.90;;;;;;;;;;5024919;28;20046;-77
2022/09/25 09:20:34;;;;;;;4.43;2.03;;;;;;;;;;5020953;28;20429;-77
2022/09/25 09:23:03;;;;;;;5.03;1.48;;;;;;;;;;5021786;28;20050;-78
2022/09/25 09:25:34;;;;;;;5.22;2.60;;;;;;;;;;5022334;28;20046;-78
2022/09/25 09:28:20;;;;;;;5.78;2.40;;;;;;;;;;5022550;28;20045;-78
2022/09/25 09:30:54;;;;;;;3.92;1.77;;;;;;;;;;5015770;28;20057;-78
2022/09/25 09:33:33;;;;;;;3.97;1.40;;;;;;;;;;5024016;28;20052;-77
2022/09/25 09:36:09;;;;;;;2.85;1.92;;;;;;;;;;5024545;28;20057;-78
2022/09/25 09:38:44;;;;;;;4.78;2.22;;;;;;;;;;5018897;28;20049;-79
2022/09/25 09:41:20;;;;;;;3.63;1.98;;;;;;;;;;5022826;28;20048;-78
2022/09/25 09:44:03;;;;;;;4.00;1.85;;;;;;;;;;5015905;28;20060;-78
2022/09/25 09:46:39;;;;;;;5.45;2.58;;;;;;;;;;5025263;28;20121;-79
2022/09/25 09:49:12;;;;;;;4.22;1.98;;;;;;;;;;5019840;28;20045;-79
2022/09/25 09:51:44;;;;;;;4.05;1.92;;;;;;;;;;5026178;28;20053;-79
2022/09/25 09:54:14;;;;;;;2.97;1.77;;;;;;;;;;5020383;28;20064;-78
2022/09/25 09:56:44;;;;;;;3.78;2.40;;;;;;;;;;5022589;28;20053;-78
2022/09/25 09:59:16;;;;;;;4.50;1.92;;;;;;;;;;5019931;28;20135;-77
2022/09/25 10:01:46;;;;;;;3.88;2.35;;;;;;;;;;5024891;28;20089;-78
2022/09/25 10:04:16;;;;;;;5.22;2.35;;;;;;;;;;5022848;28;20107;-78
2022/09/25 10:06:49;;;;;;;2.90;1.80;;;;;;;;;;5025677;28;20045;-78
2022/09/25 10:09:17;;;;;;;3.45;2.10;;;;;;;;;;5024523;28;20049;-77
2022/09/25 10:11:47;;;;;;;4.45;2.00;;;;;;;;;;5023752;28;20045;-78
2022/09/25 10:14:19;;;;;;;2.53;1.65;;;;;;;;;;5020983;28;20060;-78
2022/09/25 10:16:49;;;;;;;3.15;2.15;;;;;;;;;;5025302;28;20253;-78
2022/09/25 10:19:19;;;;;;;4.40;2.05;;;;;;;;;;5019867;28;20068;-78
2022/09/25 10:21:52;;;;;;;2.45;1.73;;;;;;;;;;5016100;28;20053;-77
2022/09/25 10:24:39;;;;;;;4.07;2.33;;;;;;;;;;5021372;28;20413;-78
2022/09/25 10:27:20;;;;;;;3.70;1.70;;;;;;;;;;5022558;28;20046;-78
2022/09/25 10:30:01;;;;;;;3.42;1.75;;;;;;;;;;5024003;28;20056;-79
2022/09/25 10:32:30;;;;;;;5.28;1.70;;;;;;;;;;5025592;28;20501;-79
2022/09/25 10:34:58;;;;;;;4.10;2.10;;;;;;;;;;5021723;28;20505;-78
2022/09/25 10:37:33;;;;;;;3.63;1.98;;;;;;;;;;5019358;28;20448;-77
2022/09/25 10:40:01;;;;;;;;;;;;;;;;;;5020819;28;20055;-77
2022/09/25 10:42:36;;;;;;;3.75;2.10;;;;;;;;;;5022190;28;20281;-78
2022/09/25 10:45:04;;;;;;;;;;;;;;;;;;5022671;28;20111;-78
2022/09/25 10:50:20;;;;;;;3.75;2.55;;;;;;;;;;5025495;28;20478;-78
2022/09/25 10:52:52;;;;;;;3.55;2.20;;;;;;;;;;5027014;28;20050;-79
2022/09/25 10:55:26;;;;;;;4.43;1.98;;;;;;;;;;5017137;28;20064;-78
2022/09/25 10:57:58;;;;;;;5.43;1.85;;;;;;;;;;5025576;28;20540;-78
2022/09/25 11:00:27;;;;;;;4.85;2.63;;;;;;;;;;5020155;28;20041;-78
2022/09/25 11:02:57;;;;;;;2.65;1.60;;;;;;;;;;5028025;28;20116;-79
2022/09/25 11:05:27;;;;;;;2.88;1.92;;;;;;;;;;5020678;28;20046;-80
2022/09/25 11:07:57;;;;;;;3.25;2.08;;;;;;;;;;5023676;28;20041;-78
2022/09/25 11:10:27;;;;;;;2.28;1.67;;;;;;;;;;5026304;28;20041;-80
2022/09/25 11:12:56;;;;;;;2.45;1.45;;;;;;;;;;5024080;28;20515;-80
2022/09/25 11:15:26;;;;;;;4.32;1.75;;;;;;;;;;5025516;28;20080;-80
2022/09/25 11:17:56;;;;;;;4.03;1.30;;;;;;;;;;5026634;28;20041;-80
2022/09/25 11:20:29;;;;;;;2.15;1.58;;;;;;;;;;5027076;28;20054;-80
2022/09/25 11:23:13;;;;;;;4.07;1.67;;;;;;;;;;5025361;28;20072;-82
2022/09/25 11:25:45;;;;;;;1.97;1.53;;;;;;;;;;5025220;28;20117;-82
2022/09/25 11:28:16;;;;;;;3.70;1.83;;;;;;;;;;5022438;28;20584;-80
2022/09/25 11:30:47;;;;;;;5.68;1.88;;;;;;;;;;5027256;28;20757;-80
2022/09/25 11:33:22;;;;;;;5.22;1.85;;;;;;;;;;5026517;28;20494;-80
2022/09/25 11:35:53;;;;;;;4.07;2.05;;;;;;;;;;5024694;28;20058;-81
2022/09/25 11:41:19;;;;;;;2.17;1.42;;;;;;;;;;5017941;28;20042;-80
2022/09/25 11:43:53;;;;;;;1.38;0.90;;;;;;;;;;5027480;28;20058;-81
2022/09/25 11:46:28;;;;;;;2.40;1.10;;;;;;;;;;5026049;28;20068;-83
2022/09/25 11:49:01;;;;;;;5.10;1.48;;;;;;;;;;5028872;28;20073;-82
2022/09/25 11:51:35;;;;;;;1.27;0.98;;;;;;;;;;5026176;28;20055;-81
2022/09/25 11:54:11;;;;;;;1.95;1.50;;;;;;;;;;5021990;28;20052;-79
2022/09/25 11:57:03;;;;;;;3.85;1.48;;;;;;;;;;5016116;28;20060;-82
2022/09/25 11:59:37;;;;;;;2.72;1.40;;;;;;;;;;5025969;28;20045;-83
2022/09/25 12:02:13;;;;;;;2.78;1.20;;;;;;;;;;5023315;28;20156;-82
2022/09/25 12:04:48;;;;;;;2.97;1.60;;;;;;;;;;5018762;28;20107;-82
2022/09/25 12:07:26;;;;;;;3.38;1.38;;;;;;;;;;5023913;28;20382;-81
2022/09/25 12:10:05;;;;;;;1.77;1.30;;;;;;;;;;5022114;28;20136;-82
2022/09/25 12:12:36;;;;;;;1.65;1.20;;;;;;;;;;5015593;28;20080;-82
2022/09/25 12:15:13;;;;;;;1.75;1.33;;;;;;;;;;5021808;28;20041;-81
2022/09/25 12:17:44;;;;;;;1.85;1.27;;;;;;;;;;5016169;28;20055;-82
2022/09/25 12:20:18;;;;;;;3.72;1.70;;;;;;;;;;5018816;28;20084;-82
2022/09/25 12:22:51;;;;;;;1.75;1.30;;;;;;;;;;5022707;28;20060;-82
2022/09/25 12:25:28;;;;;;;2.85;1.45;;;;;;;;;;5019614;28;20505;-81
2022/09/25 12:28:00;;;;;;;2.58;1.00;;;;;;;;;;5026235;28;20050;-82
2022/09/25 12:30:33;;;;;;;3.33;1.58;;;;;;;;;;5014820;28;20049;-82
2022/09/25 12:33:07;;;;;;;3.20;1.35;;;;;;;;;;5025290;28;20493;-81
2022/09/25 12:35:42;;;;;;;3.07;1.37;;;;;;;;;;5018623;28;20066;-81
2022/09/25 12:38:14;;;;;;;3.90;1.80;;;;;;;;;;5020069;28;20140;-80
2022/09/25 12:40:45;;;;;;;4.15;1.50;;;;;;;;;;5018324;28;20099;-81
2022/09/25 12:43:16;;;;;;;2.30;1.63;;;;;;;;;;5019236;28;20484;-81
2022/09/25 12:45:48;;;;;;;3.42;1.30;;;;;;;;;;5024107;28;20080;-81
2022/09/25 12:48:20;;;;;;;1.88;1.20;;;;;;;;;;5022350;28;20144;-82
2022/09/25 12:50:54;;;;;;;3.45;1.60;;;;;;;;;;5023401;28;20088;-80
2022/09/25 12:53:26;;;;;;;3.15;1.83;;;;;;;;;;5018825;28;20049;-80
2022/09/25 12:55:57;;;;;;;4.70;1.65;;;;;;;;;;5022481;28;20053;-80
2022/09/25 12:58:31;;;;;;;2.38;1.10;;;;;;;;;;5018495;28;20052;-80
2022/09/25 13:01:02;;;;;;;2.85;1.73;;;;;;;;;;5019878;28;20049;-81
2022/09/25 13:03:36;;;;;;;3.25;1.30;;;;;;;;;;5020707;28;20540;-80
2022/09/25 13:06:08;;;;;;;6.30;1.88;;;;;;;;;;5023331;28;20521;-80
2022/09/25 13:08:40;;;;;;;4.15;1.73;;;;;;;;;;5013097;28;20420;-80
2022/09/25 13:11:13;;;;;;;3.35;1.85;;;;;;;;;;5021223;28;20258;-79
2022/09/25 13:13:44;;;;;;;2.85;1.65;;;;;;;;;;5022111;28;20049;-78
2022/09/25 13:16:14;;;;;;;4.03;2.00;;;;;;;;;;5015737;28;20042;-75
2022/09/25 13:18:48;;;;;;;4.90;2.20;;;;;;;;;;5018426;28;20131;-74
2022/09/25 13:21:24;;;;;;;2.67;1.42;;;;;;;;;;5023324;28;20045;-76
2022/09/25 13:23:53;;;;;;;3.88;1.92;;;;;;;;;;5023327;28;20046;-76
2022/09/25 13:26:25;;;;;;;3.30;1.92;;;;;;;;;;5019349;28;20045;-77
2022/09/25 13:28:57;;;;;;;3.88;2.22;;;;;;;;;;5021072;28;20152;-81
2022/09/25 13:31:26;;;;;;;2.28;1.63;;;;;;;;;;5021260;28;20045;-79
2022/09/25 13:33:57;;;;;;;5.05;2.13;;;;;;;;;;5023264;28;20086;-82
2022/09/25 13:36:40;;;;;;;2.90;1.55;;;;;;;;;;5018965;28;20056;-80
2022/09/25 13:42:07;;;;;;;2.58;1.50;;;;;;;;;;5018439;28;20132;-83
2022/09/25 13:44:53;;;;;;;4.32;1.70;;;;;;;;;;5016888;28;20052;-80
2022/09/25 13:47:49;;;;;;;4.32;2.25;;;;;;;;;;4999359;28;20072;-81
2022/09/25 13:50:18;;;;;;;;;;;;;;;;;;4976353;28;20485;-80
2022/09/25 13:53:16;;;;;;;6.65;1.73;;;;;;;;;;5018332;28;20431;-78
2022/09/25 13:55:44;;;;;;;4.35;2.65;;;;;;;;;;5018938;28;20054;-77
2022/09/25 13:58:20;;;;;;;5.10;1.83;;;;;;;;;;5018673;28;20054;-73
2022/09/25 14:00:54;;;;;;;4.03;2.17;;;;;;;;;;5022864;28;20133;-79
2022/09/25 14:03:35;;;;;;;2.47;1.42;;;;;;;;;;5022957;28;20054;-77
2022/09/25 14:06:04;;;;;;;3.97;1.65;;;;;;;;;;5019989;28;20057;-77
2022/09/25 14:08:34;;;;;;;2.40;1.40;;;;;;;;;;5016894;28;20388;-77
2022/09/25 14:11:05;;;;;;;3.40;2.25;;;;;;;;;;5017795;28;20049;-77
2022/09/25 14:13:35;;;;;;;2.80;1.60;;;;;;;;;;5020289;28;20061;-76
2022/09/25 14:16:08;;;;;;;2.10;1.20;;;;;;;;;;5020520;28;20061;-77
2022/09/25 14:18:39;;;;;;;1.58;1.10;;;;;;;;;;5023486;28;20050;-78
2022/09/25 14:21:08;;;;;;;3.50;1.58;;;;;;;;;;5020332;28;20053;-78
2022/09/25 14:23:48;;;;;;;1.50;1.38;;;;;;;;;;5022409;28;20498;-77
2022/09/25 14:26:20;;;;;;;3.47;1.48;;;;;;;;;;5027707;28;20045;-77
2022/09/25 14:28:51;;;;;;;1.45;1.05;;;;;;;;;;5020858;28;20046;-77
2022/09/25 14:31:26;;;;;;;2.20;1.10;;;;;;;;;;5019186;28;20076;-77
2022/09/25 14:34:07;;;;;;;3.47;1.90;;;;;;;;;;5027580;28;20045;-77
2022/09/25 14:36:40;;;;;;;2.97;1.48;;;;;;;;;;5022389;28;20136;-78
2022/09/25 14:39:19;;;;;;;2.13;1.17;;;;;;;;;;5022567;28;20128;-76
2022/09/25 14:41:54;;;;;;;2.17;1.05;;;;;;;;;;5027360;28;20092;-77
2022/09/25 14:44:31;;;;;;;6.20;1.73;;;;;;;;;;5021729;28;20048;-77
2022/09/25 14:47:00;;;;;;;3.97;1.90;;;;;;;;;;5025773;28;20046;-77
2022/09/25 14:49:29;;;;;;;3.22;2.22;;;;;;;;;;5021094;28;20050;-76
2022/09/25 14:51:59;;;;;;;2.58;1.40;;;;;;;;;;5020605;28;20134;-76
2022/09/25 14:54:30;;;;;;;2.40;1.20;;;;;;;;;;5026754;28;20046;-76
2022/09/25 14:56:59;;;;;;;3.92;1.92;;;;;;;;;;5029336;28;20124;-77
2022/09/25 14:59:31;;;;;;;5.57;1.70;;;;;;;;;;5031321;28;20041;-76
2022/09/25 15:02:01;;;;;;;2.17;1.55;;;;;;;;;;5029169;28;20044;-76
2022/09/25 15:04:32;;;;;;;5.68;1.65;;;;;;;;;;5031130;28;20501;-76
2022/09/25 15:07:02;;;;;;;3.38;1.50;;;;;;;;;;5027663;28;20064;-76
2022/09/25 15:09:31;;;;;;;4.20;1.42;;;;;;;;;;5019800;28;20042;-76
2022/09/25 15:12:00;;;;;;;1.73;1.08;;;;;;;;;;5028559;28;20488;-76
2022/09/25 15:14:29;;;;;;;2.72;1.17;;;;;;;;;;5031045;28;20054;-76
2022/09/25 15:19:46;;;;;;;3.55;1.23;;;;;;;;;;5031413;28;20060;-75
2022/09/25 15:22:18;;;;;;;3.08;1.48;;;;;;;;;;5030479;28;20564;-75
2022/09/25 15:24:49;;;;;;;2.10;1.17;;;;;;;;;;5030990;28;20128;-76
2022/09/25 15:27:18;;;;;;;6.40;1.73;;;;;;;;;;5025002;28;20401;-76
2022/09/25 15:29:48;;;;;;;2.47;1.48;;;;;;;;;;5031007;28;20049;-76
2022/09/25 15:32:17;;;;;;;1.75;1.30;;;;;;;;;;5028189;28;20060;-75
2022/09/25 15:34:46;;;;;;;2.10;1.10;;;;;;;;;;5029672;28;20049;-75